Time;durP1;ratioP1;P1;durP2;ratioP2;P2;SDS_P1;SDS_P2;PMS_P1;PMS_P2;Temp;Humidity;BMP_temperature;BMP_pressure;BME280_temperature;BME280_humidity;BME280_pressure;Samples;Min_cycle;Max_cycle;Signal;HPM_P1;HPM_P2
2022/04/23 00:01:13;;;;;;;29.45;19.95;;;;;;;8.31;100.00;97710.34;4207565;28;20163;-73
2022/04/23 00:03:13;;;;;;;29.02;20.33;;;;;;;8.32;100.00;97714.66;4203607;28;20056;-73
2022/04/23 00:05:14;;;;;;;27.30;20.33;;;;;;;8.30;100.00;97707.97;4204184;28;20039;-73
2022/04/23 00:07:14;;;;;;;28.88;20.15;;;;;;;8.32;100.00;97713.88;4203059;28;20062;-73
2022/04/23 00:09:15;;;;;;;28.13;19.38;;;;;;;8.31;100.00;97709.53;4216120;27;20069;-73
2022/04/23 00:11:16;;;;;;;28.27;20.08;;;;;;;8.27;100.00;97705.94;4202926;28;20065;-73
2022/04/23 00:13:17;;;;;;;30.88;20.02;;;;;;;8.27;100.00;97705.94;4203250;28;20334;-73
2022/04/23 00:15:25;;;;;;;28.23;19.90;;;;;;;8.22;100.00;97709.88;4203877;28;20816;-73
2022/04/23 00:17:25;;;;;;;29.90;20.48;;;;;;;8.20;100.00;97698.44;4203177;28;20044;-73
2022/04/23 00:19:26;;;;;;;27.13;18.58;;;;;;;8.18;100.00;97709.81;4202690;28;20048;-73
2022/04/23 00:21:26;;;;;;;29.15;19.60;;;;;;;8.18;100.00;97704.31;4203443;28;20510;-73
2022/04/23 00:23:29;;;;;;;30.63;20.38;;;;;;;8.15;100.00;97701.53;4203766;28;20680;-73
2022/04/23 00:25:30;;;;;;;32.05;21.02;;;;;;;8.13;100.00;97698.38;4203528;28;20620;-73
2022/04/23 00:27:31;;;;;;;29.77;20.35;;;;;;;8.12;100.00;97707.81;4202170;28;20122;-73
2022/04/23 00:29:31;;;;;;;33.40;21.85;;;;;;;8.07;100.00;97699.91;4202631;28;20054;-73
2022/04/23 00:31:32;;;;;;;31.25;21.08;;;;;;;8.02;100.00;97698.25;4207562;28;20051;-73
2022/04/23 00:33:37;;;;;;;29.58;20.25;;;;;;;8.02;100.00;97695.50;4204316;28;20092;-73
2022/04/23 00:35:38;;;;;;;33.33;20.70;;;;;;;8.03;100.00;97702.63;4203365;28;20048;-73
2022/04/23 00:37:38;;;;;;;31.60;21.27;;;;;;;8.02;100.00;97697.47;4202452;28;20093;-73
2022/04/23 00:39:39;;;;;;;28.52;19.60;;;;;;;8.04;100.00;97706.19;4207664;28;20044;-73
2022/04/23 00:41:46;;;;;;;30.42;20.42;;;;;;;8.03;100.00;97702.63;4202835;28;20051;-73
2022/04/23 00:43:48;;;;;;;30.17;20.77;;;;;;;8.02;100.00;97701.03;4203012;28;20082;-73
2022/04/23 00:45:48;;;;;;;30.10;20.73;;;;;;;8.03;100.00;97704.59;4203261;28;20040;-73
2022/04/23 00:47:49;;;;;;;31.38;20.95;;;;;;;7.99;100.00;97707.31;4201838;28;20044;-73
2022/04/23 00:49:50;;;;;;;31.83;21.60;;;;;;;7.98;100.00;97710.44;4203288;28;20139;-73
2022/04/23 00:51:52;;;;;;;35.25;22.42;;;;;;;7.95;100.00;97708.44;4202991;28;20071;-73
2022/04/23 00:53:53;;;;;;;36.13;21.08;;;;;;;7.94;100.00;97698.59;4202924;28;20392;-73
2022/04/23 00:55:53;;;;;;;35.83;22.40;;;;;;;7.92;100.00;97701.72;4203016;28;20058;-73
2022/04/23 00:57:54;;;;;;;33.30;21.05;;;;;;;7.94;100.00;97699.38;4207327;28;20434;-73
2022/04/23 00:59:55;;;;;;;32.15;21.20;;;;;;;7.92;100.00;97696.22;4203020;28;20480;-73
2022/04/23 01:01:56;;;;;;;35.30;22.80;;;;;;;7.91;100.00;97696.59;4202854;28;20044;-73
2022/04/23 01:03:57;;;;;;;35.65;22.48;;;;;;;7.89;100.00;97708.00;4203214;28;20048;-73
2022/04/23 01:05:58;;;;;;;36.20;22.83;;;;;;;7.84;100.00;97700.06;4208303;28;20036;-73
2022/04/23 01:08:02;;;;;;;32.20;21.30;;;;;;;7.84;100.00;97703.59;4202220;28;20043;-73
2022/04/23 01:10:03;;;;;;;35.17;23.33;;;;;;;7.85;100.00;97699.69;4203396;28;20072;-73
2022/04/23 01:12:05;;;;;;;36.80;23.00;;;;;;;7.84;100.00;97697.31;4202929;28;20063;-73
2022/04/23 01:14:06;;;;;;;37.35;22.90;;;;;;;7.81;100.00;97698.88;4202457;28;20061;-73
2022/04/23 01:16:07;;;;;;;33.88;21.92;;;;;;;7.78;100.00;97702.38;4209728;27;20570;-73
2022/04/23 01:18:07;;;;;;;37.30;23.05;;;;;;;7.78;100.00;97696.88;4207321;28;20515;-73
2022/04/23 01:20:10;;;;;;;33.60;21.95;;;;;;;7.80;100.00;97696.50;4202814;28;20032;-73
2022/04/23 01:22:12;;;;;;;42.28;24.58;;;;;;;7.78;100.00;97696.88;4202564;28;20111;-73
2022/04/23 01:24:14;;;;;;;36.65;23.50;;;;;;;7.77;100.00;97703.53;4202301;28;20094;-73
2022/04/23 01:26:31;;;;;;;36.58;22.80;;;;;;;7.74;100.00;97698.78;4208501;28;20092;-73
2022/04/23 01:28:34;;;;;;;35.15;22.60;;;;;;;7.72;100.00;97690.13;4202508;28;20036;-73
2022/04/23 01:30:35;;;;;;;37.25;23.10;;;;;;;7.72;100.00;97687.38;4206656;28;20051;-73
2022/04/23 01:32:36;;;;;;;36.55;23.52;;;;;;;7.68;100.00;97683.00;4208091;28;20396;-73
2022/04/23 01:34:36;;;;;;;39.63;25.02;;;;;;;7.69;100.00;97684.56;4206474;28;20045;-73
2022/04/23 01:36:37;;;;;;;35.85;22.80;;;;;;;7.70;100.00;97694.44;4205058;28;20040;-73
2022/04/23 01:38:37;;;;;;;33.63;22.27;;;;;;;7.67;100.00;97695.97;4205573;28;20048;-73
2022/04/23 01:40:38;;;;;;;35.67;22.20;;;;;;;7.66;100.00;97694.38;4206315;28;20387;-73
2022/04/23 01:42:38;;;;;;;35.38;22.48;;;;;;;7.67;100.00;97695.97;4206097;28;20048;-73
2022/04/23 01:44:39;;;;;;;38.28;23.05;;;;;;;7.66;100.00;97696.34;4206093;28;20368;-73
2022/04/23 01:46:40;;;;;;;39.25;24.00;;;;;;;7.65;100.00;97700.28;4205023;28;20479;-73
2022/04/23 01:48:40;;;;;;;37.70;22.45;;;;;;;7.60;100.00;97698.63;4209038;28;20473;-73
2022/04/23 01:50:40;;;;;;;37.20;22.85;;;;;;;7.59;100.00;97695.09;4206131;28;20054;-73
2022/04/23 01:52:41;;;;;;;36.10;22.10;;;;;;;7.61;100.00;97700.22;4205749;28;20044;-73
2022/04/23 01:54:41;;;;;;;33.72;22.10;;;;;;;7.60;100.00;97698.63;4205957;28;20195;-73
2022/04/23 01:56:42;;;;;;;36.78;23.02;;;;;;;7.62;100.00;97695.53;4204809;28;20040;-73
2022/04/23 01:58:42;;;;;;;36.40;23.13;;;;;;;7.62;100.00;97701.84;4205914;28;20048;-73
2022/04/23 02:00:45;;;;;;;39.50;23.83;;;;;;;7.57;100.00;97702.94;4205698;28;20044;-73
2022/04/23 02:02:46;;;;;;;38.10;22.70;;;;;;;7.58;100.00;97701.78;4205981;28;20456;-73
2022/04/23 02:04:47;;;;;;;34.80;22.38;;;;;;;7.62;100.00;97699.06;4205088;28;20068;-73
2022/04/23 02:06:48;;;;;;;36.45;22.85;;;;;;;7.62;100.00;97701.03;4211130;27;20059;-73
2022/04/23 02:08:49;;;;;;;39.58;23.23;;;;;;;7.56;100.00;97701.38;4209894;28;20390;-73
2022/04/23 02:10:51;;;;;;;38.03;22.85;;;;;;;7.54;100.00;97694.66;4215665;27;20063;-73
2022/04/23 02:12:52;;;;;;;38.13;23.20;;;;;;;7.55;100.00;97699.00;4205215;28;20131;-73
2022/04/23 02:14:53;;;;;;;38.63;23.00;;;;;;;7.53;100.00;97702.13;4205390;28;20044;-73
2022/04/23 02:16:53;;;;;;;35.67;22.58;;;;;;;7.52;100.00;97700.53;4205115;28;20047;-73
2022/04/23 02:18:54;;;;;;;37.58;23.02;;;;;;;7.53;100.00;97698.56;4205234;28;20039;-73
2022/04/23 02:20:54;;;;;;;43.47;24.42;;;;;;;7.46;100.00;97688.28;4205407;28;20066;-73
2022/04/23 02:22:54;;;;;;;37.67;23.00;;;;;;;7.49;100.00;97698.53;4205075;28;20052;-73
2022/04/23 02:24:56;;;;;;;34.33;21.60;;;;;;;7.48;100.00;97690.66;4205652;28;20048;-73
2022/04/23 02:26:57;;;;;;;35.00;22.33;;;;;;;7.48;100.00;97696.94;4204618;28;20206;-73
2022/04/23 02:28:57;;;;;;;40.55;23.92;;;;;;;7.47;100.00;97695.38;4205278;28;20065;-73
2022/04/23 02:30:58;;;;;;;41.25;22.55;;;;;;;7.46;100.00;97688.28;4205080;28;20044;-73
2022/04/23 02:32:58;;;;;;;35.67;21.90;;;;;;;7.48;100.00;97702.47;4205133;28;20425;-73
2022/04/23 02:34:59;;;;;;;39.28;23.58;;;;;;;7.48;100.00;97698.91;4211936;28;20109;-73
2022/04/23 02:36:59;;;;;;;35.22;22.80;;;;;;;7.47;100.00;97702.84;4202950;28;20458;-73
2022/04/23 02:39:01;;;;;;;37.17;22.02;;;;;;;7.48;100.00;97696.94;4203910;28;20074;-73
2022/04/23 02:41:02;;;;;;;40.17;22.33;;;;;;;7.48;100.00;97696.16;4204872;27;20044;-73
2022/04/23 02:43:03;;;;;;;33.58;21.65;;;;;;;7.50;100.00;97694.59;4207180;27;20060;-73
2022/04/23 02:45:10;;;;;;;38.25;23.77;;;;;;;7.52;100.00;97702.47;4211785;28;20070;-73
2022/04/23 02:47:11;;;;;;;37.20;22.98;;;;;;;7.54;100.00;97716.69;4204640;28;20101;-73
2022/04/23 02:49:11;;;;;;;36.28;22.77;;;;;;;7.54;100.00;97700.16;4205064;28;20044;-73
2022/04/23 02:51:15;;;;;;;36.83;22.48;;;;;;;7.49;100.00;97706.78;4204538;28;20044;-73
2022/04/23 02:53:16;;;;;;;39.13;24.63;;;;;;;7.51;100.00;97709.94;4204051;28;20036;-73
2022/04/23 02:55:16;;;;;;;41.17;23.33;;;;;;;7.51;100.00;97706.41;4205205;28;20040;-73
2022/04/23 02:57:17;;;;;;;40.83;23.75;;;;;;;7.47;100.00;97703.63;4203984;28;20036;-73
2022/04/23 02:59:17;;;;;;;41.05;24.42;;;;;;;7.46;100.00;97715.03;4207109;28;20053;-73
2022/04/23 03:01:22;;;;;;;37.17;23.30;;;;;;;7.44;100.00;97698.84;4208026;28;20730;-73
2022/04/23 03:03:22;;;;;;;38.20;22.63;;;;;;;7.46;100.00;97709.50;4204208;28;20047;-73
2022/04/23 03:05:24;;;;;;;37.47;23.15;;;;;;;7.44;100.00;97703.56;4204163;28;20042;-73
2022/04/23 03:07:24;;;;;;;38.58;24.10;;;;;;;7.44;100.00;97701.59;4205553;28;20039;-73
2022/04/23 03:09:25;;;;;;;39.08;23.85;;;;;;;7.42;100.00;97695.69;4210240;28;20040;-73
2022/04/23 03:11:25;;;;;;;48.60;26.92;;;;;;;7.43;100.00;97704.75;4205679;28;20120;-73
2022/04/23 03:13:26;;;;;;;46.13;24.40;;;;;;;7.46;100.00;97706.75;4214985;28;20081;-73
2022/04/23 03:15:26;;;;;;;44.70;25.73;;;;;;;7.43;100.00;97705.53;4204428;28;20480;-73
2022/04/23 03:17:27;;;;;;;42.75;25.25;;;;;;;7.42;100.00;97697.66;4203968;28;20044;-73
2022/04/23 03:19:27;;;;;;;45.92;25.67;;;;;;;7.40;100.00;97711.00;4204315;28;20529;-73
2022/04/23 03:21:27;;;;;;;41.28;24.42;;;;;;;7.36;100.00;97704.66;4203986;28;20557;-73
2022/04/23 03:23:28;;;;;;;46.20;26.58;;;;;;;7.37;100.00;97709.81;4204338;28;20090;-73
2022/04/23 03:25:28;;;;;;;43.17;24.90;;;;;;;7.40;100.00;97719.28;4204434;28;20040;-73
2022/04/23 03:27:29;;;;;;;41.40;24.55;;;;;;;7.39;100.00;97712.19;4203058;28;20047;-73
2022/04/23 03:29:30;;;;;;;42.70;24.02;;;;;;;7.35;100.00;97709.38;4203959;28;20127;-73
2022/04/23 03:31:31;;;;;;;44.22;24.15;;;;;;;7.33;100.00;97706.22;4203430;28;20052;-73
2022/04/23 03:33:32;;;;;;;46.38;25.17;;;;;;;7.32;100.00;97716.44;4204101;28;20607;-73
2022/04/23 03:35:33;;;;;;;43.05;24.23;;;;;;;7.30;100.00;97715.22;4203786;28;20048;-73
2022/04/23 03:37:34;;;;;;;45.17;23.52;;;;;;;7.26;100.00;97709.66;4203861;28;20515;-73
2022/04/23 03:39:35;;;;;;;41.22;23.23;;;;;;;7.25;100.00;97708.09;4205602;28;20106;-73
2022/04/23 03:41:36;;;;;;;42.78;24.70;;;;;;;7.26;100.00;97720.66;4202675;28;20105;-73
2022/04/23 03:43:36;;;;;;;37.10;22.55;;;;;;;7.25;100.00;97715.53;4210502;28;20490;-73
2022/04/23 03:45:37;;;;;;;45.70;23.95;;;;;;;7.24;100.00;97711.22;4204267;28;20050;-73
2022/04/23 03:47:44;;;;;;;42.38;24.65;;;;;;;7.21;100.00;97711.97;4200912;28;20051;-73
2022/04/23 03:49:45;;;;;;;43.08;23.90;;;;;;;7.19;100.00;97704.06;4201186;28;20040;-73
2022/04/23 03:51:45;;;;;;;45.17;25.23;;;;;;;7.17;100.00;97711.91;4210431;27;20499;-73
2022/04/23 03:53:46;;;;;;;48.38;25.85;;;;;;;7.17;100.00;97709.16;4214626;28;20032;-73
2022/04/23 03:55:46;;;;;;;42.03;22.73;;;;;;;7.17;100.00;97705.63;4203171;28;20468;-73
2022/04/23 03:57:49;;;;;;;40.72;22.67;;;;;;;7.18;100.00;97710.75;4203761;28;20066;-73
2022/04/23 03:59:49;;;;;;;41.75;23.83;;;;;;;7.17;100.00;97706.41;4205073;28;20646;-73
2022/04/23 04:01:55;;;;;;;42.90;23.08;;;;;;;7.15;100.00;97702.47;4205982;27;20040;-73
2022/04/23 04:03:55;;;;;;;41.80;24.42;;;;;;;7.11;100.00;97710.66;4202194;28;20102;-73
2022/04/23 04:05:56;;;;;;;39.42;21.52;;;;;;;7.10;100.00;97703.56;4203796;28;20036;-73
2022/04/23 04:07:56;;;;;;;40.85;23.33;;;;;;;7.10;100.00;97703.56;4209853;28;20158;-73
2022/04/23 04:10:00;;;;;;;43.30;23.75;;;;;;;7.10;100.00;97708.28;4205463;28;20048;-73
2022/04/23 04:12:03;;;;;;;47.65;24.00;;;;;;;7.04;100.00;97707.84;4203350;28;20047;-73
2022/04/23 04:14:04;;;;;;;40.90;22.95;;;;;;;7.00;100.00;97707.75;4202875;28;20052;-73
2022/04/23 04:16:04;;;;;;;41.50;23.88;;;;;;;6.95;100.00;97702.59;4207988;28;20423;-73
2022/04/23 04:18:06;;;;;;;40.20;22.95;;;;;;;6.94;100.00;97709.25;4202645;27;20571;-73
2022/04/23 04:20:13;;;;;;;43.42;22.77;;;;;;;6.92;100.00;97708.84;4206344;28;20039;-73
2022/04/23 04:22:14;;;;;;;42.40;23.20;;;;;;;6.91;100.00;97711.97;4203129;28;20067;-73
2022/04/23 04:24:14;;;;;;;44.03;23.00;;;;;;;6.91;100.00;97714.72;4203192;28;20024;-73
2022/04/23 04:26:14;;;;;;;42.55;23.58;;;;;;;6.91;100.00;97715.50;4203301;28;20529;-73
2022/04/23 04:28:15;;;;;;;44.13;24.73;;;;;;;6.89;100.00;97715.09;4206474;27;20031;-73
2022/04/23 04:30:15;;;;;;;42.60;23.27;;;;;;;6.90;100.00;97713.13;4209644;28;20031;-73
2022/04/23 04:32:15;;;;;;;49.40;24.80;;;;;;;6.89;100.00;97715.09;4211340;28;20036;-73
2022/04/23 04:34:20;;;;;;;45.47;25.63;;;;;;;6.92;100.00;97710.78;4203880;28;20055;-73
2022/04/23 04:36:20;;;;;;;51.03;27.48;;;;;;;6.92;100.00;97714.34;4209601;27;20051;-73
2022/04/23 04:38:21;;;;;;;44.33;25.10;;;;;;;6.88;100.00;97715.47;4205884;28;20279;-73
2022/04/23 04:40:21;;;;;;;44.17;23.55;;;;;;;6.89;100.00;97722.56;4208601;28;20059;-73
2022/04/23 04:42:22;;;;;;;46.53;25.70;;;;;;;6.89;100.00;97717.06;4205616;28;20094;-73
2022/04/23 04:44:22;;;;;;;44.88;24.63;;;;;;;6.92;100.00;97713.53;4204026;28;20047;-73
2022/04/23 04:46:23;;;;;;;43.10;23.92;;;;;;;6.95;100.00;97721.03;4206152;28;20047;-73
2022/04/23 04:48:23;;;;;;;43.13;23.55;;;;;;;6.94;100.00;97719.47;4202883;27;20051;-73
2022/04/23 04:50:23;;;;;;;42.55;23.33;;;;;;;6.95;100.00;97715.53;4205175;28;20087;-73
2022/04/23 04:52:24;;;;;;;41.13;22.63;;;;;;;6.95;100.00;97721.84;4207912;27;20384;-73
2022/04/23 04:54:24;;;;;;;43.22;23.55;;;;;;;6.98;100.00;97725.81;4204582;28;20042;-73
2022/04/23 04:56:24;;;;;;;41.20;22.70;;;;;;;6.99;100.00;97728.19;4204211;28;20060;-73
2022/04/23 04:58:25;;;;;;;43.15;22.13;;;;;;;7.00;100.00;97727.03;4201567;28;20702;-73
2022/04/23 05:00:27;;;;;;;40.22;21.00;;;;;;;7.02;100.00;97734.88;4202806;28;20044;-73
2022/04/23 05:02:27;;;;;;;38.22;20.60;;;;;;;7.00;100.00;97727.03;4207740;27;20138;-73
2022/04/23 05:04:28;;;;;;;37.75;20.90;;;;;;;7.02;100.00;97729.38;4204755;28;20436;-73
2022/04/23 05:06:28;;;;;;;40.58;22.17;;;;;;;6.96;100.00;97726.19;4205207;28;20114;-73
2022/04/23 05:08:29;;;;;;;43.28;22.48;;;;;;;7.00;100.00;97734.47;4202970;28;20093;-73
2022/04/23 05:10:29;;;;;;;40.85;21.58;;;;;;;6.98;100.00;97737.59;4212355;27;20112;-73
2022/04/23 05:12:30;;;;;;;40.97;22.63;;;;;;;6.95;100.00;97743.88;4212356;27;20043;-73
2022/04/23 05:14:30;;;;;;;39.72;22.10;;;;;;;6.93;100.00;97735.16;4208336;28;20406;-73
2022/04/23 05:16:31;;;;;;;43.60;23.58;;;;;;;6.96;100.00;97736.41;4204488;28;20036;-73
2022/04/23 05:18:32;;;;;;;44.47;23.10;;;;;;;7.01;100.00;97747.84;4203555;28;20084;-73
2022/04/23 05:20:33;;;;;;;39.85;20.95;;;;;;;7.01;100.00;97753.34;4203295;28;20048;-73
2022/04/23 05:22:33;;;;;;;41.47;21.77;;;;;;;6.99;100.00;97752.16;4202967;28;20048;-73
2022/04/23 05:24:33;;;;;;;39.03;21.17;;;;;;;7.02;100.00;97756.91;4202839;28;20036;-73
2022/04/23 05:26:35;;;;;;;40.60;21.42;;;;;;;7.01;100.00;97758.84;4203995;28;20037;-73
2022/04/23 05:28:35;;;;;;;34.53;18.70;;;;;;;6.96;100.00;97753.69;4212769;27;20291;-73
2022/04/23 05:30:37;;;;;;;37.00;20.63;;;;;;;7.00;100.00;97767.47;4205195;27;20070;-73
2022/04/23 05:32:37;;;;;;;35.97;19.45;;;;;;;6.93;100.00;97762.66;4206579;27;20036;-73
2022/04/23 05:34:38;;;;;;;37.35;19.88;;;;;;;6.94;100.00;97763.47;4180612;27;20117;-73
2022/04/23 05:36:38;;;;;;;38.10;19.17;;;;;;;6.84;100.00;97761.34;4171005;27;20361;-73
2022/04/23 05:38:38;;;;;;;38.10;20.75;;;;;;;6.83;100.00;97768.81;4202222;28;20036;-73
2022/04/23 05:40:39;;;;;;;34.95;19.17;;;;;;;6.79;100.00;97767.19;4202433;28;20511;-73
2022/04/23 05:42:39;;;;;;;34.25;18.05;;;;;;;6.85;100.00;97771.19;4203135;28;20317;-73
2022/04/23 05:44:39;;;;;;;34.80;18.70;;;;;;;6.84;100.00;97759.41;4204544;28;20047;-73
2022/04/23 05:46:40;;;;;;;36.78;19.83;;;;;;;6.90;100.00;97765.38;4202727;28;20036;-73
2022/04/23 05:48:40;;;;;;;39.70;18.88;;;;;;;6.96;100.00;97770.19;4202516;28;20044;-73
2022/04/23 05:50:40;;;;;;;35.60;19.60;;;;;;;6.94;100.00;97763.47;4202733;28;20105;-73
2022/04/23 05:52:41;;;;;;;40.85;21.05;;;;;;;6.93;100.00;97761.88;4204045;28;20077;-73
2022/04/23 05:54:41;;;;;;;38.00;20.75;;;;;;;6.92;100.00;97763.03;4201555;28;20130;-73
2022/04/23 05:56:42;;;;;;;39.78;20.02;;;;;;;6.99;100.00;97766.69;4201873;28;20503;-73
2022/04/23 05:58:42;;;;;;;35.50;19.60;;;;;;;6.99;100.00;97772.19;4203731;28;20472;-73
2022/04/23 06:00:42;;;;;;;34.30;17.77;;;;;;;7.00;100.00;97770.22;4201954;28;20060;-73
2022/04/23 06:02:43;;;;;;;39.42;19.67;;;;;;;6.99;100.00;97771.41;4202246;28;20435;-73
2022/04/23 06:04:45;;;;;;;37.83;20.08;;;;;;;6.96;100.00;97763.91;4202385;28;20039;-73
2022/04/23 06:06:45;;;;;;;35.20;18.77;;;;;;;6.97;100.00;97773.75;4201266;28;20316;-73
2022/04/23 06:08:46;;;;;;;31.83;18.38;;;;;;;6.88;100.00;97774.00;4201775;28;20075;-73
2022/04/23 06:10:47;;;;;;;36.95;19.65;;;;;;;6.91;100.00;97772.47;4205329;27;20036;-73
2022/04/23 06:12:47;;;;;;;32.80;17.85;;;;;;;6.86;100.00;97776.31;4201314;28;20122;-73
2022/04/23 06:14:49;;;;;;;31.33;17.58;;;;;;;6.81;100.00;97784.91;4205387;27;20425;-73
2022/04/23 06:16:49;;;;;;;30.25;16.98;;;;;;;6.71;100.00;97785.53;4213287;27;20337;-73
2022/04/23 06:18:49;;;;;;;30.60;18.83;;;;;;;6.73;99.86;97786.75;4204670;28;20028;-73
2022/04/23 06:20:50;;;;;;;33.10;17.67;;;;;;;6.71;100.00;97782.78;4204976;28;20451;-73
2022/04/23 06:22:50;;;;;;;31.23;17.60;;;;;;;6.67;100.00;97782.72;4205326;28;20177;-73
2022/04/23 06:24:51;;;;;;;35.63;17.73;;;;;;;6.67;100.00;97795.66;4207823;28;20088;-73
2022/04/23 06:26:52;;;;;;;30.92;17.40;;;;;;;6.67;99.80;97793.72;4208580;28;20051;-73
2022/04/23 06:28:52;;;;;;;31.05;17.55;;;;;;;6.65;99.17;97793.28;4204715;28;20044;-73
2022/04/23 06:30:52;;;;;;;34.13;16.50;;;;;;;6.64;99.94;97797.19;4208265;28;20044;-73
2022/04/23 06:32:53;;;;;;;33.92;17.67;;;;;;;6.63;99.53;97800.31;4204638;28;20068;-73
2022/04/23 06:34:53;;;;;;;34.42;17.70;;;;;;;6.60;99.84;97799.09;4204975;28;20087;-73
2022/04/23 06:36:53;;;;;;;30.70;18.13;;;;;;;6.55;98.81;97796.66;4210331;28;20032;-73
2022/04/23 06:38:54;;;;;;;35.53;19.73;;;;;;;6.56;99.12;97801.00;4205549;28;20079;-73
2022/04/23 06:40:54;;;;;;;32.30;18.23;;;;;;;6.55;99.03;97807.66;4205110;28;20058;-73
2022/04/23 06:42:54;;;;;;;33.90;19.13;;;;;;;6.54;98.91;97800.59;4204797;28;20043;-73
2022/04/23 06:44:55;;;;;;;29.77;16.77;;;;;;;6.57;97.87;97807.28;4204749;28;20098;-73
2022/04/23 06:46:55;;;;;;;32.20;18.17;;;;;;;6.55;97.32;97802.16;4203129;28;20506;-73
2022/04/23 06:48:56;;;;;;;35.25;18.33;;;;;;;6.56;97.16;97800.22;4204735;28;20094;-73
2022/04/23 06:50:57;;;;;;;30.63;17.08;;;;;;;6.58;98.08;97801.41;4205001;28;20039;-73
2022/04/23 06:53:01;;;;;;;30.30;17.70;;;;;;;6.65;97.11;97812.53;4204011;28;20388;-73
2022/04/23 06:55:03;;;;;;;30.10;17.08;;;;;;;6.68;96.68;97813.75;4204634;28;20132;-73
2022/04/23 06:57:03;;;;;;;27.27;15.27;;;;;;;6.69;96.08;97805.13;4204061;28;20644;-73
2022/04/23 06:59:04;;;;;;;30.55;17.25;;;;;;;6.66;96.55;97799.56;4204921;28;20052;-73
2022/04/23 07:01:04;;;;;;;28.83;16.48;;;;;;;6.70;96.59;97794.91;4205400;28;20524;-73
2022/04/23 07:03:05;;;;;;;29.25;17.73;;;;;;;6.71;96.11;97804.78;4206312;28;20051;-72
2022/04/23 07:05:06;;;;;;;31.02;17.75;;;;;;;6.74;96.57;97804.81;4207687;28;20074;-73
2022/04/23 07:07:06;;;;;;;29.65;17.77;;;;;;;6.80;95.57;97796.28;4204802;28;20046;-72
2022/04/23 07:09:07;;;;;;;30.98;18.13;;;;;;;6.81;95.63;97806.09;4204727;28;20054;-73
2022/04/23 07:11:07;;;;;;;31.38;18.10;;;;;;;6.90;95.32;97806.63;4205339;27;20222;-73
2022/04/23 07:13:09;;;;;;;41.35;22.27;;;;;;;6.92;94.60;97801.53;4204444;28;20352;-73
2022/04/23 07:15:09;;;;;;;29.90;18.20;;;;;;;7.00;95.35;97812.28;4203979;28;20523;-73
2022/04/23 07:17:10;;;;;;;35.50;18.92;;;;;;;7.07;94.63;97811.59;4210819;28;20039;-73
2022/04/23 07:19:11;;;;;;;31.73;18.83;;;;;;;7.14;94.41;97805.41;4205119;28;20435;-73
2022/04/23 07:21:11;;;;;;;27.55;16.90;;;;;;;7.18;93.36;97804.28;4202716;28;20044;-73
2022/04/23 07:25:36;;;;;;;27.75;17.25;;;;;;;7.22;93.33;97791.38;4210377;28;20113;-73
2022/04/23 07:27:36;;;;;;;30.23;16.80;;;;;;;7.25;93.96;97793.38;4206954;28;20051;-73
2022/04/23 07:29:37;;;;;;;30.60;18.42;;;;;;;7.34;94.49;97798.59;4204437;28;20036;-73
2022/04/23 07:31:38;;;;;;;38.65;21.33;;;;;;;7.46;95.33;97803.09;4208100;27;20044;-73
2022/04/23 07:38:17;;;;;;;32.13;18.02;;;;;;;7.70;92.09;97791.59;4210321;27;20089;-73
2022/04/23 07:40:17;;;;;;;37.28;19.42;;;;;;;7.83;92.15;97789.38;4204081;28;20059;-73
2022/04/23 07:42:18;;;;;;;31.95;19.63;;;;;;;7.98;92.69;97784.81;4214780;28;20064;-73
2022/04/23 07:44:18;;;;;;;33.92;18.83;;;;;;;8.04;90.18;97791.56;4203467;28;20032;-73
2022/04/23 07:46:19;;;;;;;29.33;18.65;;;;;;;8.17;90.46;97779.09;4205392;27;20720;-73
2022/04/23 07:48:21;;;;;;;32.30;19.58;;;;;;;8.37;89.29;97777.75;4209873;28;20035;-73
2022/04/23 07:50:21;;;;;;;32.17;19.67;;;;;;;8.61;89.84;97778.34;4209982;28;20052;-73
2022/04/23 07:52:21;;;;;;;31.83;19.23;;;;;;;8.76;89.68;97776.47;4210898;27;20054;-73
2022/04/23 07:54:23;;;;;;;37.08;20.67;;;;;;;8.80;87.26;97774.53;4210676;27;20142;-73
2022/04/23 07:56:23;;;;;;;33.33;20.55;;;;;;;8.91;90.89;97772.66;4210735;28;20425;-73
2022/04/23 07:58:24;;;;;;;33.83;20.48;;;;;;;8.95;86.53;97774.25;4202392;28;20032;-73
2022/04/23 08:00:25;;;;;;;32.45;20.10;;;;;;;9.03;87.63;97772.34;4206338;28;20418;-73
2022/04/23 08:02:25;;;;;;;35.45;20.95;;;;;;;9.06;87.11;97768.81;4207949;27;20364;-73
2022/04/23 08:04:25;;;;;;;32.03;20.60;;;;;;;9.16;85.83;97767.28;4207616;28;20047;-73
2022/04/23 08:06:26;;;;;;;33.10;19.63;;;;;;;9.12;85.89;97769.25;4205790;28;20098;-73
2022/04/23 08:08:26;;;;;;;32.13;20.33;;;;;;;9.06;83.37;97762.50;4209021;28;20495;-73
2022/04/23 08:10:27;;;;;;;29.83;18.73;;;;;;;9.07;83.37;97773.16;4209558;28;20098;-73
2022/04/23 08:12:27;;;;;;;31.45;18.95;;;;;;;9.07;84.13;97766.84;4203139;28;20044;-73
2022/04/23 08:14:27;;;;;;;30.58;18.52;;;;;;;9.01;84.09;97758.13;4203719;28;20551;-73
2022/04/23 08:16:28;;;;;;;28.35;18.60;;;;;;;9.08;84.05;97760.91;4206370;28;20040;-73
2022/04/23 08:18:29;;;;;;;28.88;18.33;;;;;;;9.09;84.43;97759.75;4202542;28;20117;-73
2022/04/23 08:20:32;;;;;;;31.48;19.42;;;;;;;9.21;84.25;97761.41;4203586;28;20048;-73
2022/04/23 08:22:33;;;;;;;32.55;18.73;;;;;;;9.24;84.15;97758.66;4203977;28;20044;-73
2022/04/23 08:24:34;;;;;;;29.00;18.58;;;;;;;9.31;83.56;97755.13;4205283;28;20101;-73
2022/04/23 08:26:34;;;;;;;27.52;18.30;;;;;;;9.40;83.00;97769.38;4202432;28;20141;-73
2022/04/23 08:30:54;;;;;;;29.83;18.67;;;;;;;9.43;82.01;97759.53;4203307;28;20047;-73
2022/04/23 08:32:54;;;;;;;27.50;17.27;;;;;;;9.44;81.92;97748.13;4203577;28;20032;-73
2022/04/23 08:34:55;;;;;;;26.92;18.00;;;;;;;9.47;82.99;97761.13;4203840;28;20044;-73
2022/04/23 08:36:57;;;;;;;26.23;16.85;;;;;;;9.57;82.21;97748.53;4202175;28;20519;-73
2022/04/23 08:38:58;;;;;;;26.58;16.88;;;;;;;9.68;82.84;97748.56;4203341;28;20226;-73
2022/04/23 08:41:00;;;;;;;25.35;16.95;;;;;;;9.79;82.52;97757.69;4204026;28;20101;-73
2022/04/23 08:43:01;;;;;;;23.83;16.92;;;;;;;9.89;80.26;97751.41;4206441;28;20055;-73
2022/04/23 08:45:02;;;;;;;23.33;15.27;;;;;;;10.03;80.27;97737.63;4208360;28;20054;-73
2022/04/23 08:47:04;;;;;;;22.30;14.60;;;;;;;10.19;76.66;97742.78;4202004;28;20404;-73
2022/04/23 08:49:13;;;;;;;25.03;15.90;;;;;;;10.43;78.32;97746.00;4203300;28;20467;-73
2022/04/23 08:51:20;;;;;;;23.10;15.65;;;;;;;10.54;77.16;97730.97;4204424;28;20277;-73
2022/04/23 08:53:26;;;;;;;20.38;13.25;;;;;;;10.67;76.07;97734.13;4209916;28;20365;-73
2022/04/23 08:55:27;;;;;;;20.75;13.57;;;;;;;10.78;75.38;97732.16;4202730;28;20476;-73
2022/04/23 08:57:31;;;;;;;22.30;15.05;;;;;;;10.57;73.73;97724.63;4207756;27;20210;-73
2022/04/23 08:59:31;;;;;;;19.63;12.90;;;;;;;10.65;74.46;97730.97;4203136;28;20036;-73
2022/04/23 09:01:34;;;;;;;21.55;14.40;;;;;;;10.69;75.45;97735.31;4202671;28;20046;-73
2022/04/23 09:03:34;;;;;;;22.80;15.05;;;;;;;10.60;75.20;97734.94;4202521;28;20044;-73
2022/04/23 09:05:34;;;;;;;20.63;14.63;;;;;;;10.59;75.75;97729.78;4203378;28;20070;-73
2022/04/23 09:07:35;;;;;;;24.08;14.13;;;;;;;10.57;76.47;97738.47;4202904;28;20059;-73
2022/04/23 09:09:47;;;;;;;21.52;14.18;;;;;;;10.45;75.55;97736.13;4202194;28;20090;-73
2022/04/23 09:11:58;;;;;;;20.63;14.03;;;;;;;10.24;75.77;97731.34;4202709;28;20040;-73
2022/04/23 09:13:58;;;;;;;32.90;13.73;;;;;;;10.22;75.93;97732.91;4203214;28;20465;-73
2022/04/23 09:25:34;;;;;;;20.75;13.85;;;;;;;10.19;76.06;97722.66;4206120;28;20445;-73
2022/04/23 09:27:34;;;;;;;19.85;13.82;;;;;;;10.40;76.04;97730.97;4201748;28;20083;-73
2022/04/23 09:29:35;;;;;;;21.75;15.52;;;;;;;10.43;76.46;97723.88;4203119;28;20368;-73
2022/04/23 09:31:35;;;;;;;22.25;15.18;;;;;;;10.37;74.03;97729.78;4205492;28;20119;-73
2022/04/23 09:33:44;;;;;;;21.92;15.98;;;;;;;10.24;73.66;97720.28;4206008;28;20052;-73
2022/04/23 09:36:03;;;;;;;23.65;16.45;;;;;;;10.31;74.92;97727.81;4202502;28;20503;-73
2022/04/23 09:38:18;;;;;;;25.17;17.02;;;;;;;10.29;74.57;97724.66;4200757;28;20071;-73